sensor_id;sensor_type;location;lat;lon;timestamp;temperature;humidity
3478;DHT22;37937;61.490;23.506;2023-02-07T00:00:07;-2.30;99.90
3478;DHT22;37937;61.490;23.506;2023-02-07T00:02:33;-2.30;99.90
3478;DHT22;37937;61.490;23.506;2023-02-07T00:04:59;-2.30;99.90
3478;DHT22;37937;61.490;23.506;2023-02-07T00:07:25;-2.40;99.90
3478;DHT22;37937;61.490;23.506;2023-02-07T00:09:52;-2.40;99.90
3478;DHT22;37937;61.490;23.506;2023-02-07T00:12:17;-2.50;99.90
3478;DHT22;37937;61.490;23.506;2023-02-07T00:14:43;-2.50;99.90
3478;DHT22;37937;61.490;23.506;2023-02-07T00:17:09;-2.50;99.90
3478;DHT22;37937;61.490;23.506;2023-02-07T00:19:34;-2.50;99.90
3478;DHT22;37937;61.490;23.506;2023-02-07T00:22:00;-2.50;99.90
3478;DHT22;37937;61.490;23.506;2023-02-07T00:24:26;-2.50;99.90
3478;DHT22;37937;61.490;23.506;2023-02-07T00:26:52;-2.60;99.90
3478;DHT22;37937;61.490;23.506;2023-02-07T00:29:18;-2.60;99.90
3478;DHT22;37937;61.490;23.506;2023-02-07T00:31:44;-2.60;99.90
3478;DHT22;37937;61.490;23.506;2023-02-07T00:34:09;-2.60;99.90
3478;DHT22;37937;61.490;23.506;2023-02-07T00:36:35;-2.60;99.90
3478;DHT22;37937;61.490;23.506;2023-02-07T00:39:03;-2.70;99.90
3478;DHT22;37937;61.490;23.506;2023-02-07T00:41:29;-2.70;99.90
3478;DHT22;37937;61.490;23.506;2023-02-07T00:43:55;-2.70;99.90
3478;DHT22;37937;61.490;23.506;2023-02-07T00:46:21;-2.70;99.90
3478;DHT22;37937;61.490;23.506;2023-02-07T00:48:47;-2.70;99.90
3478;DHT22;37937;61.490;23.506;2023-02-07T00:51:12;-2.70;99.90
3478;DHT22;37937;61.490;23.506;2023-02-07T00:53:38;-2.70;99.90
3478;DHT22;37937;61.490;23.506;2023-02-07T00:56:05;-2.80;99.90
3478;DHT22;37937;61.490;23.506;2023-02-07T00:58:31;-2.80;99.90
3478;DHT22;37937;61.490;23.506;2023-02-07T01:00:56;-2.80;99.90
3478;DHT22;37937;61.490;23.506;2023-02-07T01:03:22;-2.80;99.90
3478;DHT22;37937;61.490;23.506;2023-02-07T01:05:48;-2.80;99.90
3478;DHT22;37937;61.490;23.506;2023-02-07T01:08:14;-2.90;99.90
3478;DHT22;37937;61.490;23.506;2023-02-07T01:10:40;-2.90;99.90
3478;DHT22;37937;61.490;23.506;2023-02-07T01:13:06;-2.90;99.90
3478;DHT22;37937;61.490;23.506;2023-02-07T01:15:34;-2.90;99.90
3478;DHT22;37937;61.490;23.506;2023-02-07T01:18:00;-2.90;99.90
3478;DHT22;37937;61.490;23.506;2023-02-07T01:20:27;-2.90;99.90
3478;DHT22;37937;61.490;23.506;2023-02-07T01:22:53;-2.90;99.90
3478;DHT22;37937;61.490;23.506;2023-02-07T01:25:18;-2.90;99.90
3478;DHT22;37937;61.490;23.506;2023-02-07T01:27:47;-2.90;99.90
3478;DHT22;37937;61.490;23.506;2023-02-07T01:30:14;-2.90;99.90
3478;DHT22;37937;61.490;23.506;2023-02-07T01:32:40;-2.90;99.90
3478;DHT22;37937;61.490;23.506;2023-02-07T01:35:06;-2.90;99.90
3478;DHT22;37937;61.490;23.506;2023-02-07T01:37:32;-2.90;99.90
3478;DHT22;37937;61.490;23.506;2023-02-07T01:39:57;-2.80;99.90
3478;DHT22;37937;61.490;23.506;2023-02-07T01:42:24;-2.80;99.90
3478;DHT22;37937;61.490;23.506;2023-02-07T01:47:17;-2.80;99.90
3478;DHT22;37937;61.490;23.506;2023-02-07T01:49:43;-2.80;99.90
3478;DHT22;37937;61.490;23.506;2023-02-07T01:52:11;-2.80;99.90
3478;DHT22;37937;61.490;23.506;2023-02-07T01:54:38;-2.80;99.90
3478;DHT22;37937;61.490;23.506;2023-02-07T01:57:05;-2.80;99.90
3478;DHT22;37937;61.490;23.506;2023-02-07T01:59:32;-2.80;99.90
3478;DHT22;37937;61.490;23.506;2023-02-07T02:01:59;-2.80;99.90
3478;DHT22;37937;61.490;23.506;2023-02-07T02:04:26;-2.80;99.90
3478;DHT22;37937;61.490;23.506;2023-02-07T02:06:52;-2.70;99.90
3478;DHT22;37937;61.490;23.506;2023-02-07T02:09:18;-2.80;99.90
3478;DHT22;37937;61.490;23.506;2023-02-07T02:24:51;-2.80;99.90
3478;DHT22;37937;61.490;23.506;2023-02-07T02:42:42;-2.80;99.90
3478;DHT22;37937;61.490;23.506;2023-02-07T02:48:08;-2.90;99.90
3478;DHT22;37937;61.490;23.506;2023-02-07T02:50:35;-2.90;99.90
3478;DHT22;37937;61.490;23.506;2023-02-07T02:53:01;-2.90;99.90
3478;DHT22;37937;61.490;23.506;2023-02-07T02:55:45;-2.80;99.90
3478;DHT22;37937;61.490;23.506;2023-02-07T02:58:36;-2.80;99.90
3478;DHT22;37937;61.490;23.506;2023-02-07T03:01:22;-2.90;99.90
3478;DHT22;37937;61.490;23.506;2023-02-07T03:04:13;-2.80;99.90
3478;DHT22;37937;61.490;23.506;2023-02-07T03:11:41;-2.80;99.90
3478;DHT22;37937;61.490;23.506;2023-02-07T03:19:37;-2.80;99.90
3478;DHT22;37937;61.490;23.506;2023-02-07T03:22:05;-2.80;99.90
3478;DHT22;37937;61.490;23.506;2023-02-07T03:24:35;-2.90;99.90
3478;DHT22;37937;61.490;23.506;2023-02-07T03:27:03;-2.90;99.90
3478;DHT22;37937;61.490;23.506;2023-02-07T03:29:30;-2.90;99.90
3478;DHT22;37937;61.490;23.506;2023-02-07T03:31:57;-2.90;99.90
3478;DHT22;37937;61.490;23.506;2023-02-07T03:34:49;-2.90;99.90
3478;DHT22;37937;61.490;23.506;2023-02-07T03:39:55;-2.90;99.90
3478;DHT22;37937;61.490;23.506;2023-02-07T03:42:23;-2.90;99.90
3478;DHT22;37937;61.490;23.506;2023-02-07T03:44:50;-2.90;99.90
3478;DHT22;37937;61.490;23.506;2023-02-07T03:47:18;-2.90;99.90
3478;DHT22;37937;61.490;23.506;2023-02-07T03:49:44;-2.90;99.90
3478;DHT22;37937;61.490;23.506;2023-02-07T03:52:09;-2.90;99.90
3478;DHT22;37937;61.490;23.506;2023-02-07T03:54:35;-3.00;99.90
3478;DHT22;37937;61.490;23.506;2023-02-07T03:57:01;-3.00;99.90
3478;DHT22;37937;61.490;23.506;2023-02-07T03:59:26;-3.00;99.90
3478;DHT22;37937;61.490;23.506;2023-02-07T04:01:52;-3.00;99.90
3478;DHT22;37937;61.490;23.506;2023-02-07T04:04:18;-3.10;99.90
3478;DHT22;37937;61.490;23.506;2023-02-07T04:06:44;-3.00;99.90
3478;DHT22;37937;61.490;23.506;2023-02-07T04:09:09;-3.00;99.90
3478;DHT22;37937;61.490;23.506;2023-02-07T04:11:35;-3.10;99.90
3478;DHT22;37937;61.490;23.506;2023-02-07T04:14:01;-3.10;99.90
3478;DHT22;37937;61.490;23.506;2023-02-07T04:16:27;-3.10;99.90
3478;DHT22;37937;61.490;23.506;2023-02-07T04:18:53;-3.20;99.90
3478;DHT22;37937;61.490;23.506;2023-02-07T04:21:18;-3.20;99.90
3478;DHT22;37937;61.490;23.506;2023-02-07T04:23:44;-3.20;99.90
3478;DHT22;37937;61.490;23.506;2023-02-07T04:26:10;-3.20;99.90
3478;DHT22;37937;61.490;23.506;2023-02-07T04:28:35;-3.20;99.90
3478;DHT22;37937;61.490;23.506;2023-02-07T04:31:01;-3.20;99.90
3478;DHT22;37937;61.490;23.506;2023-02-07T04:33:26;-3.20;99.90
3478;DHT22;37937;61.490;23.506;2023-02-07T04:35:56;-3.20;99.90
3478;DHT22;37937;61.490;23.506;2023-02-07T04:38:22;-3.10;99.90
3478;DHT22;37937;61.490;23.506;2023-02-07T04:40:48;-3.20;99.90
3478;DHT22;37937;61.490;23.506;2023-02-07T04:43:13;-3.30;99.90
3478;DHT22;37937;61.490;23.506;2023-02-07T04:45:39;-3.30;99.90
3478;DHT22;37937;61.490;23.506;2023-02-07T04:48:05;-3.30;99.90
3478;DHT22;37937;61.490;23.506;2023-02-07T04:50:30;-3.30;99.90
3478;DHT22;37937;61.490;23.506;2023-02-07T04:52:56;-3.30;99.90
3478;DHT22;37937;61.490;23.506;2023-02-07T04:55:22;-3.30;99.90
3478;DHT22;37937;61.490;23.506;2023-02-07T04:57:48;-3.30;99.90
3478;DHT22;37937;61.490;23.506;2023-02-07T05:00:14;-3.50;99.90
3478;DHT22;37937;61.490;23.506;2023-02-07T05:02:40;-3.40;99.90
3478;DHT22;37937;61.490;23.506;2023-02-07T05:05:05;-3.40;99.90
3478;DHT22;37937;61.490;23.506;2023-02-07T05:07:31;-3.40;99.90
3478;DHT22;37937;61.490;23.506;2023-02-07T05:09:57;-3.50;99.90
3478;DHT22;37937;61.490;23.506;2023-02-07T05:12:23;-3.50;99.90
3478;DHT22;37937;61.490;23.506;2023-02-07T05:14:48;-3.50;99.90
3478;DHT22;37937;61.490;23.506;2023-02-07T05:17:14;-3.50;99.90
3478;DHT22;37937;61.490;23.506;2023-02-07T05:19:44;-3.50;99.90
3478;DHT22;37937;61.490;23.506;2023-02-07T05:22:10;-3.50;99.90
3478;DHT22;37937;61.490;23.506;2023-02-07T05:24:35;-3.50;99.90
3478;DHT22;37937;61.490;23.506;2023-02-07T05:27:01;-3.50;99.90
3478;DHT22;37937;61.490;23.506;2023-02-07T05:29:26;-3.50;99.90
3478;DHT22;37937;61.490;23.506;2023-02-07T05:31:52;-3.50;99.90
3478;DHT22;37937;61.490;23.506;2023-02-07T05:34:37;-3.60;99.90
3478;DHT22;37937;61.490;23.506;2023-02-07T05:37:02;-3.60;99.90
3478;DHT22;37937;61.490;23.506;2023-02-07T05:39:28;-3.60;99.90
3478;DHT22;37937;61.490;23.506;2023-02-07T05:41:53;-3.60;99.90
3478;DHT22;37937;61.490;23.506;2023-02-07T05:44:19;-3.70;99.90
3478;DHT22;37937;61.490;23.506;2023-02-07T05:46:45;-3.70;99.90
3478;DHT22;37937;61.490;23.506;2023-02-07T05:49:10;-3.70;99.90
3478;DHT22;37937;61.490;23.506;2023-02-07T05:51:36;-3.70;99.90
3478;DHT22;37937;61.490;23.506;2023-02-07T05:54:02;-3.70;99.90
3478;DHT22;37937;61.490;23.506;2023-02-07T05:56:27;-3.70;99.90
3478;DHT22;37937;61.490;23.506;2023-02-07T05:58:53;-3.70;99.90
3478;DHT22;37937;61.490;23.506;2023-02-07T06:01:19;-3.70;99.90
3478;DHT22;37937;61.490;23.506;2023-02-07T06:03:44;-3.70;99.90
3478;DHT22;37937;61.490;23.506;2023-02-07T06:06:10;-3.80;99.90
3478;DHT22;37937;61.490;23.506;2023-02-07T06:08:36;-3.80;99.90
3478;DHT22;37937;61.490;23.506;2023-02-07T06:11:01;-3.80;99.90
3478;DHT22;37937;61.490;23.506;2023-02-07T06:13:27;-3.80;99.90
3478;DHT22;37937;61.490;23.506;2023-02-07T06:15:53;-3.80;99.90
3478;DHT22;37937;61.490;23.506;2023-02-07T06:18:19;-3.80;99.90
3478;DHT22;37937;61.490;23.506;2023-02-07T06:20:44;-3.80;99.90
3478;DHT22;37937;61.490;23.506;2023-02-07T06:23:10;-3.90;99.90
3478;DHT22;37937;61.490;23.506;2023-02-07T06:25:36;-3.90;99.90
3478;DHT22;37937;61.490;23.506;2023-02-07T06:28:02;-3.90;99.90
3478;DHT22;37937;61.490;23.506;2023-02-07T06:30:27;-3.90;99.90
3478;DHT22;37937;61.490;23.506;2023-02-07T06:32:53;-3.90;99.90
3478;DHT22;37937;61.490;23.506;2023-02-07T06:35:18;-3.90;99.90
3478;DHT22;37937;61.490;23.506;2023-02-07T06:37:44;-3.90;99.90
3478;DHT22;37937;61.490;23.506;2023-02-07T06:40:10;-3.90;99.90
3478;DHT22;37937;61.490;23.506;2023-02-07T06:42:35;-3.80;99.90
3478;DHT22;37937;61.490;23.506;2023-02-07T06:45:01;-3.80;99.90
3478;DHT22;37937;61.490;23.506;2023-02-07T06:47:27;-3.80;99.90
3478;DHT22;37937;61.490;23.506;2023-02-07T06:49:53;-3.70;99.90
3478;DHT22;37937;61.490;23.506;2023-02-07T06:52:19;-3.70;99.90
3478;DHT22;37937;61.490;23.506;2023-02-07T06:54:44;-3.60;99.90
3478;DHT22;37937;61.490;23.506;2023-02-07T06:57:10;-3.60;99.90
3478;DHT22;37937;61.490;23.506;2023-02-07T06:59:36;-3.60;99.90
3478;DHT22;37937;61.490;23.506;2023-02-07T07:02:01;-3.40;99.90
3478;DHT22;37937;61.490;23.506;2023-02-07T07:04:28;-3.30;99.90
3478;DHT22;37937;61.490;23.506;2023-02-07T07:06:53;-3.20;99.90
3478;DHT22;37937;61.490;23.506;2023-02-07T07:09:19;-3.20;99.90
3478;DHT22;37937;61.490;23.506;2023-02-07T07:11:44;-3.10;99.90
3478;DHT22;37937;61.490;23.506;2023-02-07T07:14:10;-3.10;99.90
3478;DHT22;37937;61.490;23.506;2023-02-07T07:16:36;-3.10;99.90
3478;DHT22;37937;61.490;23.506;2023-02-07T07:19:02;-3.00;99.90
3478;DHT22;37937;61.490;23.506;2023-02-07T07:21:27;-2.90;99.90
3478;DHT22;37937;61.490;23.506;2023-02-07T07:23:53;-2.80;99.90
3478;DHT22;37937;61.490;23.506;2023-02-07T07:26:19;-2.80;99.90
3478;DHT22;37937;61.490;23.506;2023-02-07T07:28:44;-2.70;99.90
3478;DHT22;37937;61.490;23.506;2023-02-07T07:31:10;-2.70;99.90
3478;DHT22;37937;61.490;23.506;2023-02-07T07:33:36;-2.60;99.90
3478;DHT22;37937;61.490;23.506;2023-02-07T07:36:02;-2.60;99.90
3478;DHT22;37937;61.490;23.506;2023-02-07T07:38:27;-2.50;99.90
3478;DHT22;37937;61.490;23.506;2023-02-07T07:40:53;-2.40;99.90
3478;DHT22;37937;61.490;23.506;2023-02-07T07:43:19;-2.40;99.90
3478;DHT22;37937;61.490;23.506;2023-02-07T07:45:45;-2.30;99.90
3478;DHT22;37937;61.490;23.506;2023-02-07T07:48:11;-2.30;99.90
3478;DHT22;37937;61.490;23.506;2023-02-07T07:50:36;-2.20;99.90
3478;DHT22;37937;61.490;23.506;2023-02-07T07:53:02;-2.10;99.90
3478;DHT22;37937;61.490;23.506;2023-02-07T07:55:28;-2.10;99.90
3478;DHT22;37937;61.490;23.506;2023-02-07T07:57:53;-2.00;99.90
3478;DHT22;37937;61.490;23.506;2023-02-07T08:00:19;-2.00;99.90
3478;DHT22;37937;61.490;23.506;2023-02-07T08:02:45;-1.90;99.90
3478;DHT22;37937;61.490;23.506;2023-02-07T08:05:11;-1.80;99.90
3478;DHT22;37937;61.490;23.506;2023-02-07T08:07:36;-1.80;99.90
3478;DHT22;37937;61.490;23.506;2023-02-07T08:10:02;-1.80;99.90
3478;DHT22;37937;61.490;23.506;2023-02-07T08:12:30;-1.70;99.90
3478;DHT22;37937;61.490;23.506;2023-02-07T08:14:55;-1.70;99.90
3478;DHT22;37937;61.490;23.506;2023-02-07T08:17:21;-1.70;99.90
3478;DHT22;37937;61.490;23.506;2023-02-07T08:19:47;-1.70;99.90
3478;DHT22;37937;61.490;23.506;2023-02-07T08:22:12;-1.60;99.90
3478;DHT22;37937;61.490;23.506;2023-02-07T08:24:39;-1.60;99.90
3478;DHT22;37937;61.490;23.506;2023-02-07T08:27:06;-1.50;99.90
3478;DHT22;37937;61.490;23.506;2023-02-07T08:29:32;-1.50;99.90
3478;DHT22;37937;61.490;23.506;2023-02-07T08:31:58;-1.60;99.90
3478;DHT22;37937;61.490;23.506;2023-02-07T08:34:23;-1.60;99.90
3478;DHT22;37937;61.490;23.506;2023-02-07T08:36:51;-1.50;99.90
3478;DHT22;37937;61.490;23.506;2023-02-07T08:39:17;-1.50;99.90
3478;DHT22;37937;61.490;23.506;2023-02-07T08:41:43;-1.50;99.90
3478;DHT22;37937;61.490;23.506;2023-02-07T08:44:09;-1.50;99.90
3478;DHT22;37937;61.490;23.506;2023-02-07T08:46:34;-1.50;99.90
3478;DHT22;37937;61.490;23.506;2023-02-07T08:49:00;-1.50;99.90
3478;DHT22;37937;61.490;23.506;2023-02-07T08:51:26;-1.50;99.90
3478;DHT22;37937;61.490;23.506;2023-02-07T08:53:52;-1.40;99.90
3478;DHT22;37937;61.490;23.506;2023-02-07T08:56:17;-1.30;99.90
3478;DHT22;37937;61.490;23.506;2023-02-07T08:58:43;-1.20;99.90
3478;DHT22;37937;61.490;23.506;2023-02-07T09:01:10;-1.10;99.90
3478;DHT22;37937;61.490;23.506;2023-02-07T09:03:38;-1.10;99.90
3478;DHT22;37937;61.490;23.506;2023-02-07T09:06:04;-1.10;99.90
3478;DHT22;37937;61.490;23.506;2023-02-07T09:08:30;-1.00;99.90
3478;DHT22;37937;61.490;23.506;2023-02-07T09:10:56;-1.00;99.90
3478;DHT22;37937;61.490;23.506;2023-02-07T09:13:21;-1.00;99.90
3478;DHT22;37937;61.490;23.506;2023-02-07T09:15:56;-1.00;99.90
3478;DHT22;37937;61.490;23.506;2023-02-07T09:18:23;-1.00;99.90
3478;DHT22;37937;61.490;23.506;2023-02-07T09:20:49;-1.00;99.90
3478;DHT22;37937;61.490;23.506;2023-02-07T09:23:15;-0.90;99.90
3478;DHT22;37937;61.490;23.506;2023-02-07T09:25:44;-1.00;99.90
3478;DHT22;37937;61.490;23.506;2023-02-07T09:28:10;-1.00;99.90
3478;DHT22;37937;61.490;23.506;2023-02-07T09:30:38;-1.00;99.90
3478;DHT22;37937;61.490;23.506;2023-02-07T09:33:04;-0.90;99.90
3478;DHT22;37937;61.490;23.506;2023-02-07T09:35:30;-1.00;99.90
3478;DHT22;37937;61.490;23.506;2023-02-07T09:37:55;-0.80;99.90
3478;DHT22;37937;61.490;23.506;2023-02-07T09:40:21;-0.70;99.90
3478;DHT22;37937;61.490;23.506;2023-02-07T09:42:50;-0.70;99.90
3478;DHT22;37937;61.490;23.506;2023-02-07T09:45:16;-0.70;99.90
3478;DHT22;37937;61.490;23.506;2023-02-07T09:47:43;-0.60;99.90
3478;DHT22;37937;61.490;23.506;2023-02-07T09:50:23;-0.70;99.90
3478;DHT22;37937;61.490;23.506;2023-02-07T09:55:17;-0.70;99.90
3478;DHT22;37937;61.490;23.506;2023-02-07T09:57:44;-0.60;99.90
3478;DHT22;37937;61.490;23.506;2023-02-07T10:02:45;-0.50;99.90
3478;DHT22;37937;61.490;23.506;2023-02-07T10:05:17;-0.50;99.90
3478;DHT22;37937;61.490;23.506;2023-02-07T10:07:44;-0.40;99.90
3478;DHT22;37937;61.490;23.506;2023-02-07T10:11:12;-0.40;99.90
3478;DHT22;37937;61.490;23.506;2023-02-07T10:18:22;-0.30;99.90
3478;DHT22;37937;61.490;23.506;2023-02-07T10:21:02;-0.40;99.90
3478;DHT22;37937;61.490;23.506;2023-02-07T10:26:24;-0.40;99.90
3478;DHT22;37937;61.490;23.506;2023-02-07T10:31:19;-0.40;99.90
3478;DHT22;37937;61.490;23.506;2023-02-07T10:33:47;-0.30;99.90
3478;DHT22;37937;61.490;23.506;2023-02-07T10:36:15;-0.30;99.90
3478;DHT22;37937;61.490;23.506;2023-02-07T10:38:43;-0.20;99.90
3478;DHT22;37937;61.490;23.506;2023-02-07T10:41:12;-0.10;99.90
3478;DHT22;37937;61.490;23.506;2023-02-07T10:43:39;-0.10;99.90
3478;DHT22;37937;61.490;23.506;2023-02-07T10:46:09;-0.20;99.90
3478;DHT22;37937;61.490;23.506;2023-02-07T10:48:36;-0.20;99.90
3478;DHT22;37937;61.490;23.506;2023-02-07T10:51:03;-0.10;99.90
3478;DHT22;37937;61.490;23.506;2023-02-07T10:53:42;-0.10;99.90
3478;DHT22;37937;61.490;23.506;2023-02-07T10:56:16;-0.20;99.90
3478;DHT22;37937;61.490;23.506;2023-02-07T10:58:42;-0.10;99.90
3478;DHT22;37937;61.490;23.506;2023-02-07T11:01:15;0.00;99.90
3478;DHT22;37937;61.490;23.506;2023-02-07T11:03:42;0.00;99.90
3478;DHT22;37937;61.490;23.506;2023-02-07T11:06:08;0.20;99.90
3478;DHT22;37937;61.490;23.506;2023-02-07T11:08:34;0.20;99.90
3478;DHT22;37937;61.490;23.506;2023-02-07T11:13:46;0.30;99.90
3478;DHT22;37937;61.490;23.506;2023-02-07T11:16:14;0.20;99.90
3478;DHT22;37937;61.490;23.506;2023-02-07T11:18:44;0.10;99.90
3478;DHT22;37937;61.490;23.506;2023-02-07T11:21:19;0.20;99.90
3478;DHT22;37937;61.490;23.506;2023-02-07T11:23:45;0.30;99.90
3478;DHT22;37937;61.490;23.506;2023-02-07T11:26:11;0.20;99.90
3478;DHT22;37937;61.490;23.506;2023-02-07T11:28:40;0.20;99.90
3478;DHT22;37937;61.490;23.506;2023-02-07T11:31:08;0.20;99.90
3478;DHT22;37937;61.490;23.506;2023-02-07T11:33:34;0.30;99.90
3478;DHT22;37937;61.490;23.506;2023-02-07T11:38:40;0.20;99.90
3478;DHT22;37937;61.490;23.506;2023-02-07T11:41:18;0.20;99.90
3478;DHT22;37937;61.490;23.506;2023-02-07T11:43:52;0.30;99.90
3478;DHT22;37937;61.490;23.506;2023-02-07T11:46:18;0.20;99.90
3478;DHT22;37937;61.490;23.506;2023-02-07T11:48:45;0.20;99.90
3478;DHT22;37937;61.490;23.506;2023-02-07T11:51:14;0.30;99.90
3478;DHT22;37937;61.490;23.506;2023-02-07T11:53:44;0.30;99.90
3478;DHT22;37937;61.490;23.506;2023-02-07T11:58:56;0.20;99.90
3478;DHT22;37937;61.490;23.506;2023-02-07T12:01:24;0.20;99.90
3478;DHT22;37937;61.490;23.506;2023-02-07T12:04:11;0.10;99.90
3478;DHT22;37937;61.490;23.506;2023-02-07T12:06:40;0.10;99.90
3478;DHT22;37937;61.490;23.506;2023-02-07T12:12:00;0.20;99.90
3478;DHT22;37937;61.490;23.506;2023-02-07T12:16:54;0.20;99.90
3478;DHT22;37937;61.490;23.506;2023-02-07T12:19:22;0.20;99.90
3478;DHT22;37937;61.490;23.506;2023-02-07T12:24:35;0.20;99.90
3478;DHT22;37937;61.490;23.506;2023-02-07T12:32:32;0.20;99.90
3478;DHT22;37937;61.490;23.506;2023-02-07T12:35:13;0.20;99.90
3478;DHT22;37937;61.490;23.506;2023-02-07T12:37:45;0.20;99.90
3478;DHT22;37937;61.490;23.506;2023-02-07T12:40:15;0.20;99.90
3478;DHT22;37937;61.490;23.506;2023-02-07T12:42:44;0.10;99.90
3478;DHT22;37937;61.490;23.506;2023-02-07T12:45:15;0.20;99.90
3478;DHT22;37937;61.490;23.506;2023-02-07T12:52:48;0.20;99.90
3478;DHT22;37937;61.490;23.506;2023-02-07T13:06:18;0.20;99.90
3478;DHT22;37937;61.490;23.506;2023-02-07T13:11:40;0.20;99.90
3478;DHT22;37937;61.490;23.506;2023-02-07T13:19:08;0.10;99.90
3478;DHT22;37937;61.490;23.506;2023-02-07T13:22:22;0.20;99.90
3478;DHT22;37937;61.490;23.506;2023-02-07T13:24:25;0.20;99.90
3478;DHT22;37937;61.490;23.506;2023-02-07T13:26:53;0.10;99.90
3478;DHT22;37937;61.490;23.506;2023-02-07T13:29:19;0.10;99.90
3478;DHT22;37937;61.490;23.506;2023-02-07T13:31:54;0.10;99.90
3478;DHT22;37937;61.490;23.506;2023-02-07T13:34:29;0.10;99.90
3478;DHT22;37937;61.490;23.506;2023-02-07T13:36:56;0.10;99.90
3478;DHT22;37937;61.490;23.506;2023-02-07T13:42:18;0.00;99.90
3478;DHT22;37937;61.490;23.506;2023-02-07T13:44:49;0.00;99.90
3478;DHT22;37937;61.490;23.506;2023-02-07T13:57:21;-0.10;99.90
3478;DHT22;37937;61.490;23.506;2023-02-07T14:00:21;-0.10;99.90
3478;DHT22;37937;61.490;23.506;2023-02-07T14:02:59;-0.20;99.90
3478;DHT22;37937;61.490;23.506;2023-02-07T14:07:56;-0.20;99.90
3478;DHT22;37937;61.490;23.506;2023-02-07T14:12:57;-0.20;99.90
3478;DHT22;37937;61.490;23.506;2023-02-07T14:18:02;-0.20;99.90
3478;DHT22;37937;61.490;23.506;2023-02-07T14:30:21;-0.20;99.90
3478;DHT22;37937;61.490;23.506;2023-02-07T14:35:30;-0.10;99.90
3478;DHT22;37937;61.490;23.506;2023-02-07T14:38:00;-0.20;99.90
3478;DHT22;37937;61.490;23.506;2023-02-07T14:45:36;-0.10;99.90
3478;DHT22;37937;61.490;23.506;2023-02-07T14:48:03;-0.10;99.90
3478;DHT22;37937;61.490;23.506;2023-02-07T14:50:29;-0.10;99.90
3478;DHT22;37937;61.490;23.506;2023-02-07T14:52:56;-0.10;99.90
3478;DHT22;37937;61.490;23.506;2023-02-07T14:55:35;-0.10;99.90
3478;DHT22;37937;61.490;23.506;2023-02-07T14:58:27;-0.10;99.90
3478;DHT22;37937;61.490;23.506;2023-02-07T15:00:52;-0.10;99.90
3478;DHT22;37937;61.490;23.506;2023-02-07T15:03:19;0.00;99.90
3478;DHT22;37937;61.490;23.506;2023-02-07T15:05:58;0.00;99.90
3478;DHT22;37937;61.490;23.506;2023-02-07T15:08:25;0.00;99.90
3478;DHT22;37937;61.490;23.506;2023-02-07T15:18:17;0.00;99.90
3478;DHT22;37937;61.490;23.506;2023-02-07T15:20:43;0.00;99.90
3478;DHT22;37937;61.490;23.506;2023-02-07T15:23:12;0.10;99.90
3478;DHT22;37937;61.490;23.506;2023-02-07T15:25:39;0.10;99.90
3478;DHT22;37937;61.490;23.506;2023-02-07T15:28:14;0.10;99.90
3478;DHT22;37937;61.490;23.506;2023-02-07T15:30:52;0.10;99.90
3478;DHT22;37937;61.490;23.506;2023-02-07T15:33:18;0.10;99.90
3478;DHT22;37937;61.490;23.506;2023-02-07T15:35:45;0.20;99.90
3478;DHT22;37937;61.490;23.506;2023-02-07T15:38:15;0.20;99.90
3478;DHT22;37937;61.490;23.506;2023-02-07T15:40:41;0.20;99.90
3478;DHT22;37937;61.490;23.506;2023-02-07T15:43:21;0.20;99.90
3478;DHT22;37937;61.490;23.506;2023-02-07T15:45:56;0.20;99.90
3478;DHT22;37937;61.490;23.506;2023-02-07T15:48:22;0.30;99.90
3478;DHT22;37937;61.490;23.506;2023-02-07T15:50:51;0.30;99.90
3478;DHT22;37937;61.490;23.506;2023-02-07T15:53:18;0.30;99.90
3478;DHT22;37937;61.490;23.506;2023-02-07T15:55:46;0.30;99.90
3478;DHT22;37937;61.490;23.506;2023-02-07T15:58:30;0.30;99.90
3478;DHT22;37937;61.490;23.506;2023-02-07T16:01:00;0.30;99.90
3478;DHT22;37937;61.490;23.506;2023-02-07T16:03:27;0.30;99.90
3478;DHT22;37937;61.490;23.506;2023-02-07T16:06:00;0.30;99.90
3478;DHT22;37937;61.490;23.506;2023-02-07T16:08:36;0.40;99.90
3478;DHT22;37937;61.490;23.506;2023-02-07T16:13:53;0.40;99.90
3478;DHT22;37937;61.490;23.506;2023-02-07T16:18:51;0.40;99.90
3478;DHT22;37937;61.490;23.506;2023-02-07T16:21:18;0.40;99.90
3478;DHT22;37937;61.490;23.506;2023-02-07T16:23:46;0.40;99.90
3478;DHT22;37937;61.490;23.506;2023-02-07T16:26:13;0.40;99.90
3478;DHT22;37937;61.490;23.506;2023-02-07T16:28:40;0.40;99.90
3478;DHT22;37937;61.490;23.506;2023-02-07T16:31:06;0.40;99.90
3478;DHT22;37937;61.490;23.506;2023-02-07T16:33:31;0.40;99.90
3478;DHT22;37937;61.490;23.506;2023-02-07T16:35:57;0.40;99.90
3478;DHT22;37937;61.490;23.506;2023-02-07T16:38:22;0.40;99.90
3478;DHT22;37937;61.490;23.506;2023-02-07T16:40:48;0.40;99.90
3478;DHT22;37937;61.490;23.506;2023-02-07T16:43:34;0.40;99.90
3478;DHT22;37937;61.490;23.506;2023-02-07T16:46:00;0.50;99.90
3478;DHT22;37937;61.490;23.506;2023-02-07T16:48:26;0.40;99.90
3478;DHT22;37937;61.490;23.506;2023-02-07T16:50:52;0.40;99.90
3478;DHT22;37937;61.490;23.506;2023-02-07T16:53:17;0.40;99.90
3478;DHT22;37937;61.490;23.506;2023-02-07T16:55:43;0.40;99.90
3478;DHT22;37937;61.490;23.506;2023-02-07T16:58:09;0.40;99.90
3478;DHT22;37937;61.490;23.506;2023-02-07T17:00:39;0.40;99.90
3478;DHT22;37937;61.490;23.506;2023-02-07T17:03:07;0.40;99.90
3478;DHT22;37937;61.490;23.506;2023-02-07T17:05:37;0.30;99.90
3478;DHT22;37937;61.490;23.506;2023-02-07T17:08:02;0.40;99.90
3478;DHT22;37937;61.490;23.506;2023-02-07T17:10:29;0.40;99.90
3478;DHT22;37937;61.490;23.506;2023-02-07T17:12:55;0.40;99.90
3478;DHT22;37937;61.490;23.506;2023-02-07T17:15:20;0.40;99.90
3478;DHT22;37937;61.490;23.506;2023-02-07T17:17:46;0.40;99.90
3478;DHT22;37937;61.490;23.506;2023-02-07T17:20:26;0.40;99.90
3478;DHT22;37937;61.490;23.506;2023-02-07T17:22:52;0.50;99.90
3478;DHT22;37937;61.490;23.506;2023-02-07T17:25:19;0.50;99.90
3478;DHT22;37937;61.490;23.506;2023-02-07T17:27:45;0.50;99.90
3478;DHT22;37937;61.490;23.506;2023-02-07T17:30:15;0.50;99.90
3478;DHT22;37937;61.490;23.506;2023-02-07T17:32:41;0.50;99.90
3478;DHT22;37937;61.490;23.506;2023-02-07T17:35:07;0.50;99.90
3478;DHT22;37937;61.490;23.506;2023-02-07T17:37:33;0.50;99.90
3478;DHT22;37937;61.490;23.506;2023-02-07T17:39:59;0.50;99.90
3478;DHT22;37937;61.490;23.506;2023-02-07T17:42:24;0.50;99.90
3478;DHT22;37937;61.490;23.506;2023-02-07T17:44:50;0.50;99.90
3478;DHT22;37937;61.490;23.506;2023-02-07T17:47:15;0.60;99.90
3478;DHT22;37937;61.490;23.506;2023-02-07T17:49:41;0.50;99.90
3478;DHT22;37937;61.490;23.506;2023-02-07T17:52:07;0.50;99.90
3478;DHT22;37937;61.490;23.506;2023-02-07T17:54:37;0.50;99.90
3478;DHT22;37937;61.490;23.506;2023-02-07T17:57:13;0.50;99.90
3478;DHT22;37937;61.490;23.506;2023-02-07T17:59:41;0.50;99.90
3478;DHT22;37937;61.490;23.506;2023-02-07T18:02:07;0.50;99.90
3478;DHT22;37937;61.490;23.506;2023-02-07T18:04:33;0.60;99.90
3478;DHT22;37937;61.490;23.506;2023-02-07T18:06:59;0.60;99.90
3478;DHT22;37937;61.490;23.506;2023-02-07T18:09:24;0.60;99.90
3478;DHT22;37937;61.490;23.506;2023-02-07T18:11:52;0.60;99.90
3478;DHT22;37937;61.490;23.506;2023-02-07T18:14:18;0.60;99.90
3478;DHT22;37937;61.490;23.506;2023-02-07T18:16:43;0.60;99.90